<?xml version="1.0" encoding="UTF-8" standalone="no" ?>
<gpx xmlns="http://www.topografix.com/GPX/1/1" xmlns:xsi="http://www.w3.org/2001/XMLSchema-instance" xsi:schemaLocation="http://www.topografix.com/GPX/1/1 http://www.topografix.com/GPX/1/1/gpx.xsd" version="1.1" creator="VisuGPX - https://www.visugpx.com">
  <metadata>
    <name>Le pin de Galaban</name>
    <desc><![CDATA[Petit tour au départ de La Ciotat un jour où le temps n'a décidé de se lever qu'à 17 h 00]]></desc>
  </metadata>
  <trk>
    <name><![CDATA[Magellan_ActiveTrack]]></name>
    <desc><![CDATA[From Active Track]]></desc>
    <trkseg>
      <trkpt lat="43.18404" lon="5.59613">
        <ele>124.398438</ele>
        <time>2018-04-04T14:13:48Z</time>
      </trkpt>
      <trkpt lat="43.18407" lon="5.59568">
        <ele>57.296875</ele>
        <time>2018-04-04T14:14:05Z</time>
      </trkpt>
      <trkpt lat="43.1841" lon="5.59554">
        <ele>51.699219</ele>
        <time>2018-04-04T14:14:12Z</time>
      </trkpt>
      <trkpt lat="43.18414" lon="5.59541">
        <ele>48.296875</ele>
        <time>2018-04-04T14:14:19Z</time>
      </trkpt>
      <trkpt lat="43.18448" lon="5.59421">
        <ele>49.898438</ele>
        <time>2018-04-04T14:15:43Z</time>
      </trkpt>
      <trkpt lat="43.18453" lon="5.59409">
        <ele>51</ele>
        <time>2018-04-04T14:15:53Z</time>
      </trkpt>
      <trkpt lat="43.18457" lon="5.59396">
        <ele>53.199219</ele>
        <time>2018-04-04T14:16:02Z</time>
      </trkpt>
      <trkpt lat="43.18457" lon="5.59383">
        <ele>57.296875</ele>
        <time>2018-04-04T14:16:11Z</time>
      </trkpt>
      <trkpt lat="43.1846" lon="5.5937">
        <ele>55.796875</ele>
        <time>2018-04-04T14:16:22Z</time>
      </trkpt>
      <trkpt lat="43.1846" lon="5.59357">
        <ele>55.097656</ele>
        <time>2018-04-04T14:16:30Z</time>
      </trkpt>
      <trkpt lat="43.18458" lon="5.59318">
        <ele>50.796875</ele>
        <time>2018-04-04T14:16:53Z</time>
      </trkpt>
      <trkpt lat="43.18452" lon="5.59253">
        <ele>54.398438</ele>
        <time>2018-04-04T14:17:37Z</time>
      </trkpt>
      <trkpt lat="43.18444" lon="5.59202">
        <ele>55.699219</ele>
        <time>2018-04-04T14:18:13Z</time>
      </trkpt>
      <trkpt lat="43.18444" lon="5.59188">
        <ele>57.699219</ele>
        <time>2018-04-04T14:18:22Z</time>
      </trkpt>
      <trkpt lat="43.18442" lon="5.59136">
        <ele>67.199219</ele>
        <time>2018-04-04T14:19:00Z</time>
      </trkpt>
      <trkpt lat="43.18439" lon="5.59123">
        <ele>67.199219</ele>
        <time>2018-04-04T14:19:09Z</time>
      </trkpt>
      <trkpt lat="43.18436" lon="5.59111">
        <ele>68.898438</ele>
        <time>2018-04-04T14:19:20Z</time>
      </trkpt>
      <trkpt lat="43.18443" lon="5.59101">
        <ele>72.398438</ele>
        <time>2018-04-04T14:19:31Z</time>
      </trkpt>
      <trkpt lat="43.1845" lon="5.59091">
        <ele>72.296875</ele>
        <time>2018-04-04T14:19:39Z</time>
      </trkpt>
      <trkpt lat="43.18452" lon="5.59078">
        <ele>72.296875</ele>
        <time>2018-04-04T14:19:48Z</time>
      </trkpt>
      <trkpt lat="43.18456" lon="5.59067">
        <ele>70.5</ele>
        <time>2018-04-04T14:19:56Z</time>
      </trkpt>
      <trkpt lat="43.18464" lon="5.59044">
        <ele>69.597656</ele>
        <time>2018-04-04T14:20:12Z</time>
      </trkpt>
      <trkpt lat="43.18467" lon="5.59031">
        <ele>69.597656</ele>
        <time>2018-04-04T14:20:20Z</time>
      </trkpt>
      <trkpt lat="43.18468" lon="5.59019">
        <ele>68.699219</ele>
        <time>2018-04-04T14:20:28Z</time>
      </trkpt>
      <trkpt lat="43.18469" lon="5.59006">
        <ele>69.097656</ele>
        <time>2018-04-04T14:20:36Z</time>
      </trkpt>
      <trkpt lat="43.18469" lon="5.58994">
        <ele>69.898438</ele>
        <time>2018-04-04T14:20:44Z</time>
      </trkpt>
      <trkpt lat="43.18477" lon="5.58916">
        <ele>64.898438</ele>
        <time>2018-04-04T14:21:35Z</time>
      </trkpt>
      <trkpt lat="43.18482" lon="5.58903">
        <ele>66.5</ele>
        <time>2018-04-04T14:21:44Z</time>
      </trkpt>
      <trkpt lat="43.1849" lon="5.58896">
        <ele>72.898438</ele>
        <time>2018-04-04T14:21:55Z</time>
      </trkpt>
      <trkpt lat="43.18498" lon="5.589">
        <ele>77.898438</ele>
        <time>2018-04-04T14:22:07Z</time>
      </trkpt>
      <trkpt lat="43.18504" lon="5.5891">
        <ele>79.398438</ele>
        <time>2018-04-04T14:22:20Z</time>
      </trkpt>
      <trkpt lat="43.1851" lon="5.58921">
        <ele>74.898438</ele>
        <time>2018-04-04T14:22:31Z</time>
      </trkpt>
      <trkpt lat="43.18514" lon="5.58933">
        <ele>72.296875</ele>
        <time>2018-04-04T14:22:42Z</time>
      </trkpt>
      <trkpt lat="43.18518" lon="5.58944">
        <ele>67.597656</ele>
        <time>2018-04-04T14:22:51Z</time>
      </trkpt>
      <trkpt lat="43.1852" lon="5.58957">
        <ele>69.199219</ele>
        <time>2018-04-04T14:23:01Z</time>
      </trkpt>
      <trkpt lat="43.18523" lon="5.58969">
        <ele>73.796875</ele>
        <time>2018-04-04T14:23:09Z</time>
      </trkpt>
      <trkpt lat="43.18527" lon="5.58981">
        <ele>80.097656</ele>
        <time>2018-04-04T14:23:17Z</time>
      </trkpt>
      <trkpt lat="43.18532" lon="5.58992">
        <ele>90.097656</ele>
        <time>2018-04-04T14:23:25Z</time>
      </trkpt>
      <trkpt lat="43.18537" lon="5.59003">
        <ele>97.699219</ele>
        <time>2018-04-04T14:23:34Z</time>
      </trkpt>
      <trkpt lat="43.18546" lon="5.59007">
        <ele>100.398438</ele>
        <time>2018-04-04T14:23:46Z</time>
      </trkpt>
      <trkpt lat="43.18556" lon="5.59008">
        <ele>103.097656</ele>
        <time>2018-04-04T14:23:56Z</time>
      </trkpt>
      <trkpt lat="43.18565" lon="5.5901">
        <ele>100.699219</ele>
        <time>2018-04-04T14:24:06Z</time>
      </trkpt>
      <trkpt lat="43.18583" lon="5.59015">
        <ele>101.296875</ele>
        <time>2018-04-04T14:24:22Z</time>
      </trkpt>
      <trkpt lat="43.18594" lon="5.59018">
        <ele>97.097656</ele>
        <time>2018-04-04T14:24:37Z</time>
      </trkpt>
      <trkpt lat="43.18602" lon="5.59022">
        <ele>104.296875</ele>
        <time>2018-04-04T14:24:47Z</time>
      </trkpt>
      <trkpt lat="43.18611" lon="5.59028">
        <ele>103.796875</ele>
        <time>2018-04-04T14:24:56Z</time>
      </trkpt>
      <trkpt lat="43.18621" lon="5.5903">
        <ele>98.5</ele>
        <time>2018-04-04T14:25:04Z</time>
      </trkpt>
      <trkpt lat="43.1863" lon="5.59032">
        <ele>87.296875</ele>
        <time>2018-04-04T14:25:12Z</time>
      </trkpt>
      <trkpt lat="43.18639" lon="5.59028">
        <ele>83.097656</ele>
        <time>2018-04-04T14:25:22Z</time>
      </trkpt>
      <trkpt lat="43.18648" lon="5.59022">
        <ele>81</ele>
        <time>2018-04-04T14:25:29Z</time>
      </trkpt>
      <trkpt lat="43.18655" lon="5.59012">
        <ele>80.597656</ele>
        <time>2018-04-04T14:25:36Z</time>
      </trkpt>
      <trkpt lat="43.18661" lon="5.59001">
        <ele>80.296875</ele>
        <time>2018-04-04T14:25:45Z</time>
      </trkpt>
      <trkpt lat="43.18663" lon="5.58988">
        <ele>77.898438</ele>
        <time>2018-04-04T14:25:56Z</time>
      </trkpt>
      <trkpt lat="43.18664" lon="5.58976">
        <ele>74.898438</ele>
        <time>2018-04-04T14:26:05Z</time>
      </trkpt>
      <trkpt lat="43.18662" lon="5.58951">
        <ele>67.898438</ele>
        <time>2018-04-04T14:26:24Z</time>
      </trkpt>
      <trkpt lat="43.1866" lon="5.58938">
        <ele>69.699219</ele>
        <time>2018-04-04T14:26:34Z</time>
      </trkpt>
      <trkpt lat="43.18662" lon="5.58925">
        <ele>72.296875</ele>
        <time>2018-04-04T14:26:46Z</time>
      </trkpt>
      <trkpt lat="43.18664" lon="5.58912">
        <ele>77.398438</ele>
        <time>2018-04-04T14:26:59Z</time>
      </trkpt>
      <trkpt lat="43.1867" lon="5.58889">
        <ele>82.898438</ele>
        <time>2018-04-04T14:27:19Z</time>
      </trkpt>
      <trkpt lat="43.18672" lon="5.58875">
        <ele>86</ele>
        <time>2018-04-04T14:27:27Z</time>
      </trkpt>
      <trkpt lat="43.18672" lon="5.58862">
        <ele>89.796875</ele>
        <time>2018-04-04T14:27:35Z</time>
      </trkpt>
      <trkpt lat="43.18671" lon="5.58848">
        <ele>93.898438</ele>
        <time>2018-04-04T14:27:43Z</time>
      </trkpt>
      <trkpt lat="43.18674" lon="5.58836">
        <ele>95</ele>
        <time>2018-04-04T14:27:55Z</time>
      </trkpt>
      <trkpt lat="43.1867" lon="5.58824">
        <ele>94.699219</ele>
        <time>2018-04-04T14:28:08Z</time>
      </trkpt>
      <trkpt lat="43.18663" lon="5.58816">
        <ele>97.898438</ele>
        <time>2018-04-04T14:28:17Z</time>
      </trkpt>
      <trkpt lat="43.18647" lon="5.588">
        <ele>109</ele>
        <time>2018-04-04T14:28:40Z</time>
      </trkpt>
      <trkpt lat="43.18638" lon="5.58798">
        <ele>112.597656</ele>
        <time>2018-04-04T14:28:52Z</time>
      </trkpt>
      <trkpt lat="43.18583" lon="5.58783">
        <ele>116.898438</ele>
        <time>2018-04-04T14:29:56Z</time>
      </trkpt>
      <trkpt lat="43.18576" lon="5.58775">
        <ele>111.199219</ele>
        <time>2018-04-04T14:30:07Z</time>
      </trkpt>
      <trkpt lat="43.18569" lon="5.58766">
        <ele>108.699219</ele>
        <time>2018-04-04T14:30:17Z</time>
      </trkpt>
      <trkpt lat="43.18565" lon="5.58754">
        <ele>104.296875</ele>
        <time>2018-04-04T14:30:38Z</time>
      </trkpt>
      <trkpt lat="43.18565" lon="5.58741">
        <ele>100.796875</ele>
        <time>2018-04-04T14:30:51Z</time>
      </trkpt>
      <trkpt lat="43.1857" lon="5.5873">
        <ele>103.898438</ele>
        <time>2018-04-04T14:31:02Z</time>
      </trkpt>
      <trkpt lat="43.18577" lon="5.5872">
        <ele>109.5</ele>
        <time>2018-04-04T14:31:13Z</time>
      </trkpt>
      <trkpt lat="43.18585" lon="5.58711">
        <ele>111.199219</ele>
        <time>2018-04-04T14:31:29Z</time>
      </trkpt>
      <trkpt lat="43.18594" lon="5.58707">
        <ele>111.398438</ele>
        <time>2018-04-04T14:31:40Z</time>
      </trkpt>
      <trkpt lat="43.18603" lon="5.58704">
        <ele>113.398438</ele>
        <time>2018-04-04T14:31:50Z</time>
      </trkpt>
      <trkpt lat="43.18612" lon="5.58697">
        <ele>115.796875</ele>
        <time>2018-04-04T14:32:01Z</time>
      </trkpt>
      <trkpt lat="43.18619" lon="5.58688">
        <ele>117.699219</ele>
        <time>2018-04-04T14:32:10Z</time>
      </trkpt>
      <trkpt lat="43.18622" lon="5.58675">
        <ele>116</ele>
        <time>2018-04-04T14:32:21Z</time>
      </trkpt>
      <trkpt lat="43.18621" lon="5.58662">
        <ele>114.296875</ele>
        <time>2018-04-04T14:32:32Z</time>
      </trkpt>
      <trkpt lat="43.18621" lon="5.58649">
        <ele>112</ele>
        <time>2018-04-04T14:32:43Z</time>
      </trkpt>
      <trkpt lat="43.18621" lon="5.58636">
        <ele>113</ele>
        <time>2018-04-04T14:32:56Z</time>
      </trkpt>
      <trkpt lat="43.1862" lon="5.58623">
        <ele>115.398438</ele>
        <time>2018-04-04T14:33:07Z</time>
      </trkpt>
      <trkpt lat="43.18621" lon="5.58597">
        <ele>120.597656</ele>
        <time>2018-04-04T14:33:29Z</time>
      </trkpt>
      <trkpt lat="43.18623" lon="5.58584">
        <ele>122.5</ele>
        <time>2018-04-04T14:33:41Z</time>
      </trkpt>
      <trkpt lat="43.18623" lon="5.58571">
        <ele>125.296875</ele>
        <time>2018-04-04T14:33:51Z</time>
      </trkpt>
      <trkpt lat="43.18624" lon="5.58558">
        <ele>127.5</ele>
        <time>2018-04-04T14:34:03Z</time>
      </trkpt>
      <trkpt lat="43.18626" lon="5.58546">
        <ele>129</ele>
        <time>2018-04-04T14:34:12Z</time>
      </trkpt>
      <trkpt lat="43.1863" lon="5.58534">
        <ele>131.398438</ele>
        <time>2018-04-04T14:34:22Z</time>
      </trkpt>
      <trkpt lat="43.18628" lon="5.58521">
        <ele>131.988281</ele>
        <time>2018-04-04T14:34:32Z</time>
      </trkpt>
      <trkpt lat="43.18624" lon="5.58511">
        <ele>137.699219</ele>
        <time>2018-04-04T14:34:53Z</time>
      </trkpt>
      <trkpt lat="43.18616" lon="5.58504">
        <ele>138.699219</ele>
        <time>2018-04-04T14:35:14Z</time>
      </trkpt>
      <trkpt lat="43.18606" lon="5.585">
        <ele>138.699219</ele>
        <time>2018-04-04T14:35:24Z</time>
      </trkpt>
      <trkpt lat="43.18597" lon="5.58495">
        <ele>138.398438</ele>
        <time>2018-04-04T14:35:33Z</time>
      </trkpt>
      <trkpt lat="43.18589" lon="5.58489">
        <ele>138.296875</ele>
        <time>2018-04-04T14:35:41Z</time>
      </trkpt>
      <trkpt lat="43.18581" lon="5.58483">
        <ele>137.796875</ele>
        <time>2018-04-04T14:35:50Z</time>
      </trkpt>
      <trkpt lat="43.18573" lon="5.58475">
        <ele>137.796875</ele>
        <time>2018-04-04T14:35:59Z</time>
      </trkpt>
      <trkpt lat="43.18558" lon="5.58459">
        <ele>140.5</ele>
        <time>2018-04-04T14:36:16Z</time>
      </trkpt>
      <trkpt lat="43.18544" lon="5.58442">
        <ele>129.398438</ele>
        <time>2018-04-04T14:36:36Z</time>
      </trkpt>
      <trkpt lat="43.18535" lon="5.58439">
        <ele>130.796875</ele>
        <time>2018-04-04T14:37:16Z</time>
      </trkpt>
      <trkpt lat="43.18527" lon="5.5843">
        <ele>131.296875</ele>
        <time>2018-04-04T14:37:25Z</time>
      </trkpt>
      <trkpt lat="43.18519" lon="5.58423">
        <ele>132</ele>
        <time>2018-04-04T14:37:32Z</time>
      </trkpt>
      <trkpt lat="43.18511" lon="5.58417">
        <ele>133.199219</ele>
        <time>2018-04-04T14:37:42Z</time>
      </trkpt>
      <trkpt lat="43.18504" lon="5.58408">
        <ele>135.199219</ele>
        <time>2018-04-04T14:37:50Z</time>
      </trkpt>
      <trkpt lat="43.18498" lon="5.58399">
        <ele>136.898438</ele>
        <time>2018-04-04T14:37:59Z</time>
      </trkpt>
      <trkpt lat="43.18485" lon="5.58378">
        <ele>138.5</ele>
        <time>2018-04-04T14:38:20Z</time>
      </trkpt>
      <trkpt lat="43.18491" lon="5.58388">
        <ele>137.699219</ele>
        <time>2018-04-04T14:38:48Z</time>
      </trkpt>
      <trkpt lat="43.18496" lon="5.58398">
        <ele>136.796875</ele>
        <time>2018-04-04T14:38:56Z</time>
      </trkpt>
      <trkpt lat="43.18504" lon="5.58406">
        <ele>135.296875</ele>
        <time>2018-04-04T14:39:04Z</time>
      </trkpt>
      <trkpt lat="43.18507" lon="5.58394">
        <ele>132.5</ele>
        <time>2018-04-04T14:39:20Z</time>
      </trkpt>
      <trkpt lat="43.18504" lon="5.58382">
        <ele>129.898438</ele>
        <time>2018-04-04T14:39:30Z</time>
      </trkpt>
      <trkpt lat="43.18497" lon="5.58358">
        <ele>132.898438</ele>
        <time>2018-04-04T14:39:48Z</time>
      </trkpt>
      <trkpt lat="43.18493" lon="5.58334">
        <ele>130.5</ele>
        <time>2018-04-04T14:40:06Z</time>
      </trkpt>
      <trkpt lat="43.18493" lon="5.58321">
        <ele>127.097656</ele>
        <time>2018-04-04T14:40:15Z</time>
      </trkpt>
      <trkpt lat="43.18492" lon="5.58307">
        <ele>122.097656</ele>
        <time>2018-04-04T14:40:27Z</time>
      </trkpt>
      <trkpt lat="43.18487" lon="5.58295">
        <ele>120.296875</ele>
        <time>2018-04-04T14:40:36Z</time>
      </trkpt>
      <trkpt lat="43.1849" lon="5.58283">
        <ele>122.699219</ele>
        <time>2018-04-04T14:40:47Z</time>
      </trkpt>
      <trkpt lat="43.18499" lon="5.58279">
        <ele>127.296875</ele>
        <time>2018-04-04T14:40:59Z</time>
      </trkpt>
      <trkpt lat="43.18509" lon="5.58279">
        <ele>127.5</ele>
        <time>2018-04-04T14:41:13Z</time>
      </trkpt>
      <trkpt lat="43.18519" lon="5.58277">
        <ele>133.597656</ele>
        <time>2018-04-04T14:41:51Z</time>
      </trkpt>
      <trkpt lat="43.18528" lon="5.58279">
        <ele>136.597656</ele>
        <time>2018-04-04T14:42:08Z</time>
      </trkpt>
      <trkpt lat="43.18537" lon="5.58282">
        <ele>138.699219</ele>
        <time>2018-04-04T14:42:24Z</time>
      </trkpt>
      <trkpt lat="43.18547" lon="5.58279">
        <ele>140.5</ele>
        <time>2018-04-04T14:42:37Z</time>
      </trkpt>
      <trkpt lat="43.18557" lon="5.58278">
        <ele>142</ele>
        <time>2018-04-04T14:42:47Z</time>
      </trkpt>
      <trkpt lat="43.18566" lon="5.58274">
        <ele>142.796875</ele>
        <time>2018-04-04T14:42:55Z</time>
      </trkpt>
      <trkpt lat="43.18573" lon="5.58265">
        <ele>143.199219</ele>
        <time>2018-04-04T14:43:03Z</time>
      </trkpt>
      <trkpt lat="43.18579" lon="5.58254">
        <ele>143.097656</ele>
        <time>2018-04-04T14:43:10Z</time>
      </trkpt>
      <trkpt lat="43.18583" lon="5.58243">
        <ele>142.796875</ele>
        <time>2018-04-04T14:43:18Z</time>
      </trkpt>
      <trkpt lat="43.18585" lon="5.5823">
        <ele>140</ele>
        <time>2018-04-04T14:43:26Z</time>
      </trkpt>
      <trkpt lat="43.18587" lon="5.58217">
        <ele>137.199219</ele>
        <time>2018-04-04T14:43:34Z</time>
      </trkpt>
      <trkpt lat="43.18587" lon="5.58204">
        <ele>137.597656</ele>
        <time>2018-04-04T14:43:42Z</time>
      </trkpt>
      <trkpt lat="43.18587" lon="5.58149">
        <ele>131.296875</ele>
        <time>2018-04-04T14:44:14Z</time>
      </trkpt>
      <trkpt lat="43.18588" lon="5.58137">
        <ele>129.699219</ele>
        <time>2018-04-04T14:44:21Z</time>
      </trkpt>
      <trkpt lat="43.18593" lon="5.58097">
        <ele>132.898438</ele>
        <time>2018-04-04T14:44:44Z</time>
      </trkpt>
      <trkpt lat="43.18593" lon="5.58084">
        <ele>133.898438</ele>
        <time>2018-04-04T14:44:52Z</time>
      </trkpt>
      <trkpt lat="43.18594" lon="5.58071">
        <ele>134.296875</ele>
        <time>2018-04-04T14:45:00Z</time>
      </trkpt>
      <trkpt lat="43.18596" lon="5.58031">
        <ele>128.296875</ele>
        <time>2018-04-04T14:45:24Z</time>
      </trkpt>
      <trkpt lat="43.18594" lon="5.58004">
        <ele>126.597656</ele>
        <time>2018-04-04T14:45:41Z</time>
      </trkpt>
      <trkpt lat="43.18595" lon="5.57991">
        <ele>128.097656</ele>
        <time>2018-04-04T14:45:49Z</time>
      </trkpt>
      <trkpt lat="43.18597" lon="5.57979">
        <ele>129.898438</ele>
        <time>2018-04-04T14:45:57Z</time>
      </trkpt>
      <trkpt lat="43.18605" lon="5.5794">
        <ele>134.398438</ele>
        <time>2018-04-04T14:46:19Z</time>
      </trkpt>
      <trkpt lat="43.1861" lon="5.57929">
        <ele>135.898438</ele>
        <time>2018-04-04T14:46:28Z</time>
      </trkpt>
      <trkpt lat="43.18619" lon="5.57924">
        <ele>134.976563</ele>
        <time>2018-04-04T14:46:36Z</time>
      </trkpt>
      <trkpt lat="43.18627" lon="5.57918">
        <ele>136.5</ele>
        <time>2018-04-04T14:47:48Z</time>
      </trkpt>
      <trkpt lat="43.1863" lon="5.57907">
        <ele>135.105469</ele>
        <time>2018-04-04T14:48:46Z</time>
      </trkpt>
      <trkpt lat="43.18635" lon="5.57896">
        <ele>140</ele>
        <time>2018-04-04T14:49:06Z</time>
      </trkpt>
      <trkpt lat="43.18643" lon="5.5789">
        <ele>155.699219</ele>
        <time>2018-04-04T14:49:29Z</time>
      </trkpt>
      <trkpt lat="43.18654" lon="5.57889">
        <ele>155.699219</ele>
        <time>2018-04-04T14:50:09Z</time>
      </trkpt>
      <trkpt lat="43.18672" lon="5.57887">
        <ele>158.296875</ele>
        <time>2018-04-04T14:51:04Z</time>
      </trkpt>
      <trkpt lat="43.18681" lon="5.57881">
        <ele>160.097656</ele>
        <time>2018-04-04T14:51:16Z</time>
      </trkpt>
      <trkpt lat="43.18684" lon="5.57868">
        <ele>160.898438</ele>
        <time>2018-04-04T14:51:42Z</time>
      </trkpt>
      <trkpt lat="43.18684" lon="5.57856">
        <ele>162</ele>
        <time>2018-04-04T14:51:51Z</time>
      </trkpt>
      <trkpt lat="43.18684" lon="5.57842">
        <ele>162</ele>
        <time>2018-04-04T14:52:01Z</time>
      </trkpt>
      <trkpt lat="43.18682" lon="5.5783">
        <ele>164.296875</ele>
        <time>2018-04-04T14:52:11Z</time>
      </trkpt>
      <trkpt lat="43.18688" lon="5.5782">
        <ele>164.296875</ele>
        <time>2018-04-04T14:52:28Z</time>
      </trkpt>
      <trkpt lat="43.18695" lon="5.57811">
        <ele>162</ele>
        <time>2018-04-04T14:52:40Z</time>
      </trkpt>
      <trkpt lat="43.18702" lon="5.57802">
        <ele>153.898438</ele>
        <time>2018-04-04T14:52:51Z</time>
      </trkpt>
      <trkpt lat="43.18713" lon="5.578">
        <ele>155.699219</ele>
        <time>2018-04-04T14:53:31Z</time>
      </trkpt>
      <trkpt lat="43.18719" lon="5.57809">
        <ele>156.097656</ele>
        <time>2018-04-04T14:53:44Z</time>
      </trkpt>
      <trkpt lat="43.18727" lon="5.57816">
        <ele>150.699219</ele>
        <time>2018-04-04T14:53:59Z</time>
      </trkpt>
      <trkpt lat="43.18734" lon="5.57824">
        <ele>148.699219</ele>
        <time>2018-04-04T14:54:16Z</time>
      </trkpt>
      <trkpt lat="43.18742" lon="5.5783">
        <ele>143.597656</ele>
        <time>2018-04-04T14:54:29Z</time>
      </trkpt>
      <trkpt lat="43.1875" lon="5.57836">
        <ele>143.597656</ele>
        <time>2018-04-04T14:54:56Z</time>
      </trkpt>
      <trkpt lat="43.18758" lon="5.57844">
        <ele>144.097656</ele>
        <time>2018-04-04T14:55:06Z</time>
      </trkpt>
      <trkpt lat="43.18793" lon="5.57887">
        <ele>134.296875</ele>
        <time>2018-04-04T14:55:51Z</time>
      </trkpt>
      <trkpt lat="43.18801" lon="5.57893">
        <ele>134.398438</ele>
        <time>2018-04-04T14:55:58Z</time>
      </trkpt>
      <trkpt lat="43.18826" lon="5.57912">
        <ele>135.796875</ele>
        <time>2018-04-04T14:56:24Z</time>
      </trkpt>
      <trkpt lat="43.18833" lon="5.5792">
        <ele>137.398438</ele>
        <time>2018-04-04T14:56:34Z</time>
      </trkpt>
      <trkpt lat="43.18849" lon="5.57934">
        <ele>140.796875</ele>
        <time>2018-04-04T14:56:53Z</time>
      </trkpt>
      <trkpt lat="43.18856" lon="5.57942">
        <ele>142.898438</ele>
        <time>2018-04-04T14:57:02Z</time>
      </trkpt>
      <trkpt lat="43.18864" lon="5.57948">
        <ele>140.097656</ele>
        <time>2018-04-04T14:57:12Z</time>
      </trkpt>
      <trkpt lat="43.18873" lon="5.57954">
        <ele>132.597656</ele>
        <time>2018-04-04T14:57:21Z</time>
      </trkpt>
      <trkpt lat="43.1888" lon="5.57963">
        <ele>125.5</ele>
        <time>2018-04-04T14:57:31Z</time>
      </trkpt>
      <trkpt lat="43.18887" lon="5.57971">
        <ele>125.097656</ele>
        <time>2018-04-04T14:57:40Z</time>
      </trkpt>
      <trkpt lat="43.18896" lon="5.57976">
        <ele>126.5</ele>
        <time>2018-04-04T14:57:47Z</time>
      </trkpt>
      <trkpt lat="43.18906" lon="5.57979">
        <ele>128.796875</ele>
        <time>2018-04-04T14:57:54Z</time>
      </trkpt>
      <trkpt lat="43.18915" lon="5.57981">
        <ele>130.699219</ele>
        <time>2018-04-04T14:58:01Z</time>
      </trkpt>
      <trkpt lat="43.18926" lon="5.57981">
        <ele>132</ele>
        <time>2018-04-04T14:58:08Z</time>
      </trkpt>
      <trkpt lat="43.18935" lon="5.57979">
        <ele>131.699219</ele>
        <time>2018-04-04T14:58:15Z</time>
      </trkpt>
      <trkpt lat="43.18942" lon="5.57971">
        <ele>131.796875</ele>
        <time>2018-04-04T14:58:23Z</time>
      </trkpt>
      <trkpt lat="43.18949" lon="5.57962">
        <ele>131.597656</ele>
        <time>2018-04-04T14:58:31Z</time>
      </trkpt>
      <trkpt lat="43.18958" lon="5.57958">
        <ele>132.097656</ele>
        <time>2018-04-04T14:58:39Z</time>
      </trkpt>
      <trkpt lat="43.18967" lon="5.57955">
        <ele>132.597656</ele>
        <time>2018-04-04T14:58:50Z</time>
      </trkpt>
      <trkpt lat="43.18977" lon="5.57953">
        <ele>128.199219</ele>
        <time>2018-04-04T14:59:02Z</time>
      </trkpt>
      <trkpt lat="43.18995" lon="5.5795">
        <ele>127.597656</ele>
        <time>2018-04-04T14:59:21Z</time>
      </trkpt>
      <trkpt lat="43.19004" lon="5.57944">
        <ele>129.597656</ele>
        <time>2018-04-04T14:59:31Z</time>
      </trkpt>
      <trkpt lat="43.19011" lon="5.57935">
        <ele>128.296875</ele>
        <time>2018-04-04T14:59:40Z</time>
      </trkpt>
      <trkpt lat="43.19018" lon="5.57925">
        <ele>126</ele>
        <time>2018-04-04T14:59:49Z</time>
      </trkpt>
      <trkpt lat="43.19025" lon="5.57918">
        <ele>126.097656</ele>
        <time>2018-04-04T15:00:00Z</time>
      </trkpt>
      <trkpt lat="43.19031" lon="5.57908">
        <ele>122.097656</ele>
        <time>2018-04-04T15:00:10Z</time>
      </trkpt>
      <trkpt lat="43.19035" lon="5.57897">
        <ele>117.097656</ele>
        <time>2018-04-04T15:00:20Z</time>
      </trkpt>
      <trkpt lat="43.19042" lon="5.57888">
        <ele>106</ele>
        <time>2018-04-04T15:00:29Z</time>
      </trkpt>
      <trkpt lat="43.1905" lon="5.5788">
        <ele>106.796875</ele>
        <time>2018-04-04T15:00:48Z</time>
      </trkpt>
      <trkpt lat="43.19058" lon="5.57885">
        <ele>111.097656</ele>
        <time>2018-04-04T15:01:03Z</time>
      </trkpt>
      <trkpt lat="43.19102" lon="5.5791">
        <ele>105.898438</ele>
        <time>2018-04-04T15:01:58Z</time>
      </trkpt>
      <trkpt lat="43.19112" lon="5.5791">
        <ele>106.097656</ele>
        <time>2018-04-04T15:02:05Z</time>
      </trkpt>
      <trkpt lat="43.1915" lon="5.57913">
        <ele>105.796875</ele>
        <time>2018-04-04T15:02:59Z</time>
      </trkpt>
      <trkpt lat="43.19157" lon="5.57921">
        <ele>105.097656</ele>
        <time>2018-04-04T15:03:09Z</time>
      </trkpt>
      <trkpt lat="43.19164" lon="5.5793">
        <ele>102.597656</ele>
        <time>2018-04-04T15:03:18Z</time>
      </trkpt>
      <trkpt lat="43.19169" lon="5.57942">
        <ele>106.699219</ele>
        <time>2018-04-04T15:03:28Z</time>
      </trkpt>
      <trkpt lat="43.19174" lon="5.57953">
        <ele>108.699219</ele>
        <time>2018-04-04T15:03:38Z</time>
      </trkpt>
      <trkpt lat="43.19176" lon="5.57966">
        <ele>110.097656</ele>
        <time>2018-04-04T15:03:48Z</time>
      </trkpt>
      <trkpt lat="43.19176" lon="5.57978">
        <ele>107.5</ele>
        <time>2018-04-04T15:04:00Z</time>
      </trkpt>
      <trkpt lat="43.19175" lon="5.57991">
        <ele>103.398438</ele>
        <time>2018-04-04T15:04:07Z</time>
      </trkpt>
      <trkpt lat="43.19176" lon="5.58003">
        <ele>99.699219</ele>
        <time>2018-04-04T15:04:16Z</time>
      </trkpt>
      <trkpt lat="43.19179" lon="5.58016">
        <ele>95</ele>
        <time>2018-04-04T15:04:24Z</time>
      </trkpt>
      <trkpt lat="43.1918" lon="5.58029">
        <ele>90.148438</ele>
        <time>2018-04-04T15:04:32Z</time>
      </trkpt>
      <trkpt lat="43.19185" lon="5.5804">
        <ele>73.699219</ele>
        <time>2018-04-04T15:04:59Z</time>
      </trkpt>
      <trkpt lat="43.19197" lon="5.58062">
        <ele>94.699219</ele>
        <time>2018-04-04T15:06:01Z</time>
      </trkpt>
      <trkpt lat="43.19206" lon="5.58067">
        <ele>95.699219</ele>
        <time>2018-04-04T15:06:11Z</time>
      </trkpt>
      <trkpt lat="43.19213" lon="5.58074">
        <ele>94.398438</ele>
        <time>2018-04-04T15:06:18Z</time>
      </trkpt>
      <trkpt lat="43.19219" lon="5.58085">
        <ele>93.097656</ele>
        <time>2018-04-04T15:06:25Z</time>
      </trkpt>
      <trkpt lat="43.19226" lon="5.58095">
        <ele>93.398438</ele>
        <time>2018-04-04T15:06:32Z</time>
      </trkpt>
      <trkpt lat="43.19234" lon="5.58103">
        <ele>93.199219</ele>
        <time>2018-04-04T15:06:40Z</time>
      </trkpt>
      <trkpt lat="43.19249" lon="5.58119">
        <ele>91.796875</ele>
        <time>2018-04-04T15:06:54Z</time>
      </trkpt>
      <trkpt lat="43.19258" lon="5.58125">
        <ele>93</ele>
        <time>2018-04-04T15:07:00Z</time>
      </trkpt>
      <trkpt lat="43.19275" lon="5.58139">
        <ele>91.699219</ele>
        <time>2018-04-04T15:07:13Z</time>
      </trkpt>
      <trkpt lat="43.19282" lon="5.58147">
        <ele>87.597656</ele>
        <time>2018-04-04T15:07:20Z</time>
      </trkpt>
      <trkpt lat="43.19288" lon="5.58156">
        <ele>80.699219</ele>
        <time>2018-04-04T15:07:26Z</time>
      </trkpt>
      <trkpt lat="43.19294" lon="5.58166">
        <ele>78.296875</ele>
        <time>2018-04-04T15:07:33Z</time>
      </trkpt>
      <trkpt lat="43.19299" lon="5.58176">
        <ele>78.296875</ele>
        <time>2018-04-04T15:07:40Z</time>
      </trkpt>
      <trkpt lat="43.19303" lon="5.58188">
        <ele>79.898438</ele>
        <time>2018-04-04T15:07:47Z</time>
      </trkpt>
      <trkpt lat="43.19307" lon="5.582">
        <ele>79</ele>
        <time>2018-04-04T15:07:56Z</time>
      </trkpt>
      <trkpt lat="43.19306" lon="5.58213">
        <ele>78.398438</ele>
        <time>2018-04-04T15:08:05Z</time>
      </trkpt>
      <trkpt lat="43.19304" lon="5.58226">
        <ele>80.898438</ele>
        <time>2018-04-04T15:08:13Z</time>
      </trkpt>
      <trkpt lat="43.19301" lon="5.58238">
        <ele>86.5</ele>
        <time>2018-04-04T15:08:21Z</time>
      </trkpt>
      <trkpt lat="43.19294" lon="5.58247">
        <ele>91.296875</ele>
        <time>2018-04-04T15:08:29Z</time>
      </trkpt>
      <trkpt lat="43.19287" lon="5.58257">
        <ele>87.5</ele>
        <time>2018-04-04T15:08:38Z</time>
      </trkpt>
      <trkpt lat="43.1928" lon="5.58267">
        <ele>84.898438</ele>
        <time>2018-04-04T15:08:47Z</time>
      </trkpt>
      <trkpt lat="43.19275" lon="5.58277">
        <ele>84.097656</ele>
        <time>2018-04-04T15:08:54Z</time>
      </trkpt>
      <trkpt lat="43.19272" lon="5.58289">
        <ele>87.898438</ele>
        <time>2018-04-04T15:09:02Z</time>
      </trkpt>
      <trkpt lat="43.19273" lon="5.58302">
        <ele>91.097656</ele>
        <time>2018-04-04T15:09:09Z</time>
      </trkpt>
      <trkpt lat="43.19273" lon="5.58327">
        <ele>93.5</ele>
        <time>2018-04-04T15:09:23Z</time>
      </trkpt>
      <trkpt lat="43.19275" lon="5.5834">
        <ele>96.296875</ele>
        <time>2018-04-04T15:09:32Z</time>
      </trkpt>
      <trkpt lat="43.19276" lon="5.58354">
        <ele>95.097656</ele>
        <time>2018-04-04T15:09:42Z</time>
      </trkpt>
      <trkpt lat="43.19277" lon="5.58368">
        <ele>94.597656</ele>
        <time>2018-04-04T15:09:49Z</time>
      </trkpt>
      <trkpt lat="43.19275" lon="5.58382">
        <ele>93.898438</ele>
        <time>2018-04-04T15:09:56Z</time>
      </trkpt>
      <trkpt lat="43.19275" lon="5.58395">
        <ele>93.199219</ele>
        <time>2018-04-04T15:10:03Z</time>
      </trkpt>
      <trkpt lat="43.19277" lon="5.58408">
        <ele>92</ele>
        <time>2018-04-04T15:10:09Z</time>
      </trkpt>
      <trkpt lat="43.19279" lon="5.58421">
        <ele>93.699219</ele>
        <time>2018-04-04T15:10:16Z</time>
      </trkpt>
      <trkpt lat="43.19284" lon="5.58432">
        <ele>93.5</ele>
        <time>2018-04-04T15:10:25Z</time>
      </trkpt>
      <trkpt lat="43.19289" lon="5.58444">
        <ele>91.5</ele>
        <time>2018-04-04T15:10:34Z</time>
      </trkpt>
      <trkpt lat="43.19296" lon="5.58467">
        <ele>85.199219</ele>
        <time>2018-04-04T15:10:53Z</time>
      </trkpt>
      <trkpt lat="43.19315" lon="5.58513">
        <ele>83.097656</ele>
        <time>2018-04-04T15:11:27Z</time>
      </trkpt>
      <trkpt lat="43.19316" lon="5.58525">
        <ele>84.5</ele>
        <time>2018-04-04T15:11:35Z</time>
      </trkpt>
      <trkpt lat="43.19319" lon="5.58537">
        <ele>83.699219</ele>
        <time>2018-04-04T15:11:43Z</time>
      </trkpt>
      <trkpt lat="43.19325" lon="5.58562">
        <ele>90.097656</ele>
        <time>2018-04-04T15:11:59Z</time>
      </trkpt>
      <trkpt lat="43.19323" lon="5.58576">
        <ele>92</ele>
        <time>2018-04-04T15:12:09Z</time>
      </trkpt>
      <trkpt lat="43.19322" lon="5.58588">
        <ele>94.296875</ele>
        <time>2018-04-04T15:12:17Z</time>
      </trkpt>
      <trkpt lat="43.19321" lon="5.58601">
        <ele>94.898438</ele>
        <time>2018-04-04T15:12:26Z</time>
      </trkpt>
      <trkpt lat="43.19319" lon="5.58613">
        <ele>93</ele>
        <time>2018-04-04T15:12:33Z</time>
      </trkpt>
      <trkpt lat="43.19314" lon="5.58626">
        <ele>88.597656</ele>
        <time>2018-04-04T15:12:39Z</time>
      </trkpt>
      <trkpt lat="43.1931" lon="5.58638">
        <ele>90.097656</ele>
        <time>2018-04-04T15:12:47Z</time>
      </trkpt>
      <trkpt lat="43.19303" lon="5.58648">
        <ele>92.796875</ele>
        <time>2018-04-04T15:12:53Z</time>
      </trkpt>
      <trkpt lat="43.19296" lon="5.58657">
        <ele>95.398438</ele>
        <time>2018-04-04T15:13:00Z</time>
      </trkpt>
      <trkpt lat="43.19259" lon="5.587">
        <ele>101</ele>
        <time>2018-04-04T15:13:35Z</time>
      </trkpt>
      <trkpt lat="43.19251" lon="5.58708">
        <ele>96.5</ele>
        <time>2018-04-04T15:13:46Z</time>
      </trkpt>
      <trkpt lat="43.19242" lon="5.58715">
        <ele>91.5</ele>
        <time>2018-04-04T15:13:56Z</time>
      </trkpt>
      <trkpt lat="43.19233" lon="5.58719">
        <ele>89.796875</ele>
        <time>2018-04-04T15:14:04Z</time>
      </trkpt>
      <trkpt lat="43.19225" lon="5.58725">
        <ele>88.199219</ele>
        <time>2018-04-04T15:14:11Z</time>
      </trkpt>
      <trkpt lat="43.19218" lon="5.58734">
        <ele>85.597656</ele>
        <time>2018-04-04T15:14:17Z</time>
      </trkpt>
      <trkpt lat="43.19213" lon="5.58746">
        <ele>79.5</ele>
        <time>2018-04-04T15:14:25Z</time>
      </trkpt>
      <trkpt lat="43.19211" lon="5.58759">
        <ele>77.699219</ele>
        <time>2018-04-04T15:14:33Z</time>
      </trkpt>
      <trkpt lat="43.1921" lon="5.58771">
        <ele>76.597656</ele>
        <time>2018-04-04T15:14:40Z</time>
      </trkpt>
      <trkpt lat="43.19208" lon="5.58784">
        <ele>78.5</ele>
        <time>2018-04-04T15:14:47Z</time>
      </trkpt>
      <trkpt lat="43.19205" lon="5.58797">
        <ele>80.898438</ele>
        <time>2018-04-04T15:14:55Z</time>
      </trkpt>
      <trkpt lat="43.19202" lon="5.5881">
        <ele>80.199219</ele>
        <time>2018-04-04T15:15:02Z</time>
      </trkpt>
      <trkpt lat="43.19199" lon="5.58822">
        <ele>78.597656</ele>
        <time>2018-04-04T15:15:11Z</time>
      </trkpt>
      <trkpt lat="43.19193" lon="5.58832">
        <ele>73.296875</ele>
        <time>2018-04-04T15:15:19Z</time>
      </trkpt>
      <trkpt lat="43.19188" lon="5.58845">
        <ele>67.097656</ele>
        <time>2018-04-04T15:15:27Z</time>
      </trkpt>
      <trkpt lat="43.19187" lon="5.58858">
        <ele>70.296875</ele>
        <time>2018-04-04T15:15:35Z</time>
      </trkpt>
      <trkpt lat="43.19187" lon="5.58871">
        <ele>75.796875</ele>
        <time>2018-04-04T15:15:44Z</time>
      </trkpt>
      <trkpt lat="43.19183" lon="5.58884">
        <ele>79.796875</ele>
        <time>2018-04-04T15:15:53Z</time>
      </trkpt>
      <trkpt lat="43.1918" lon="5.58896">
        <ele>81.796875</ele>
        <time>2018-04-04T15:16:02Z</time>
      </trkpt>
      <trkpt lat="43.19174" lon="5.5892">
        <ele>83.398438</ele>
        <time>2018-04-04T15:16:19Z</time>
      </trkpt>
      <trkpt lat="43.19168" lon="5.58929">
        <ele>87.5</ele>
        <time>2018-04-04T15:16:28Z</time>
      </trkpt>
      <trkpt lat="43.19161" lon="5.58937">
        <ele>95</ele>
        <time>2018-04-04T15:16:44Z</time>
      </trkpt>
      <trkpt lat="43.19151" lon="5.5894">
        <ele>97.398438</ele>
        <time>2018-04-04T15:16:57Z</time>
      </trkpt>
      <trkpt lat="43.19142" lon="5.58943">
        <ele>102.898438</ele>
        <time>2018-04-04T15:17:06Z</time>
      </trkpt>
      <trkpt lat="43.19132" lon="5.58943">
        <ele>103.898438</ele>
        <time>2018-04-04T15:17:15Z</time>
      </trkpt>
      <trkpt lat="43.19112" lon="5.58947">
        <ele>102.699219</ele>
        <time>2018-04-04T15:17:27Z</time>
      </trkpt>
      <trkpt lat="43.19103" lon="5.58951">
        <ele>100.699219</ele>
        <time>2018-04-04T15:17:35Z</time>
      </trkpt>
      <trkpt lat="43.19085" lon="5.5896">
        <ele>95.597656</ele>
        <time>2018-04-04T15:17:49Z</time>
      </trkpt>
      <trkpt lat="43.19076" lon="5.58966">
        <ele>92.199219</ele>
        <time>2018-04-04T15:17:59Z</time>
      </trkpt>
      <trkpt lat="43.19052" lon="5.58986">
        <ele>86.097656</ele>
        <time>2018-04-04T15:18:21Z</time>
      </trkpt>
      <trkpt lat="43.19045" lon="5.58994">
        <ele>86.796875</ele>
        <time>2018-04-04T15:18:29Z</time>
      </trkpt>
      <trkpt lat="43.19037" lon="5.59002">
        <ele>88.398438</ele>
        <time>2018-04-04T15:18:37Z</time>
      </trkpt>
      <trkpt lat="43.19029" lon="5.59008">
        <ele>90.097656</ele>
        <time>2018-04-04T15:18:45Z</time>
      </trkpt>
      <trkpt lat="43.19021" lon="5.59015">
        <ele>91.5</ele>
        <time>2018-04-04T15:18:53Z</time>
      </trkpt>
      <trkpt lat="43.19012" lon="5.59018">
        <ele>91.199219</ele>
        <time>2018-04-04T15:19:02Z</time>
      </trkpt>
      <trkpt lat="43.18985" lon="5.59032">
        <ele>78.898438</ele>
        <time>2018-04-04T15:19:25Z</time>
      </trkpt>
      <trkpt lat="43.18976" lon="5.59038">
        <ele>76.097656</ele>
        <time>2018-04-04T15:19:32Z</time>
      </trkpt>
      <trkpt lat="43.18969" lon="5.59046">
        <ele>73.796875</ele>
        <time>2018-04-04T15:19:42Z</time>
      </trkpt>
      <trkpt lat="43.18949" lon="5.59073">
        <ele>74.5</ele>
        <time>2018-04-04T15:20:06Z</time>
      </trkpt>
      <trkpt lat="43.18944" lon="5.59083">
        <ele>69.796875</ele>
        <time>2018-04-04T15:20:16Z</time>
      </trkpt>
      <trkpt lat="43.18939" lon="5.59096">
        <ele>67.097656</ele>
        <time>2018-04-04T15:20:24Z</time>
      </trkpt>
      <trkpt lat="43.18933" lon="5.59105">
        <ele>69.796875</ele>
        <time>2018-04-04T15:20:32Z</time>
      </trkpt>
      <trkpt lat="43.18925" lon="5.59113">
        <ele>70.597656</ele>
        <time>2018-04-04T15:20:42Z</time>
      </trkpt>
      <trkpt lat="43.18918" lon="5.59122">
        <ele>69.5</ele>
        <time>2018-04-04T15:20:51Z</time>
      </trkpt>
      <trkpt lat="43.18911" lon="5.59131">
        <ele>67.898438</ele>
        <time>2018-04-04T15:20:58Z</time>
      </trkpt>
      <trkpt lat="43.18884" lon="5.59169">
        <ele>72.5</ele>
        <time>2018-04-04T15:21:28Z</time>
      </trkpt>
      <trkpt lat="43.18876" lon="5.59176">
        <ele>70.898438</ele>
        <time>2018-04-04T15:21:36Z</time>
      </trkpt>
      <trkpt lat="43.18869" lon="5.59186">
        <ele>72.296875</ele>
        <time>2018-04-04T15:21:45Z</time>
      </trkpt>
      <trkpt lat="43.1886" lon="5.59194">
        <ele>73.398438</ele>
        <time>2018-04-04T15:21:53Z</time>
      </trkpt>
      <trkpt lat="43.18831" lon="5.59225">
        <ele>75.5</ele>
        <time>2018-04-04T15:22:27Z</time>
      </trkpt>
      <trkpt lat="43.18822" lon="5.59232">
        <ele>74.199219</ele>
        <time>2018-04-04T15:22:34Z</time>
      </trkpt>
      <trkpt lat="43.18796" lon="5.59249">
        <ele>64.796875</ele>
        <time>2018-04-04T15:22:53Z</time>
      </trkpt>
      <trkpt lat="43.18787" lon="5.5925">
        <ele>63.898438</ele>
        <time>2018-04-04T15:23:02Z</time>
      </trkpt>
      <trkpt lat="43.18775" lon="5.59253">
        <ele>59</ele>
        <time>2018-04-04T15:23:17Z</time>
      </trkpt>
      <trkpt lat="43.18768" lon="5.59262">
        <ele>65.199219</ele>
        <time>2018-04-04T15:23:32Z</time>
      </trkpt>
      <trkpt lat="43.18763" lon="5.59274">
        <ele>66.699219</ele>
        <time>2018-04-04T15:23:47Z</time>
      </trkpt>
      <trkpt lat="43.18756" lon="5.59281">
        <ele>66.199219</ele>
        <time>2018-04-04T15:23:53Z</time>
      </trkpt>
      <trkpt lat="43.18752" lon="5.59293">
        <ele>64.296875</ele>
        <time>2018-04-04T15:24:01Z</time>
      </trkpt>
      <trkpt lat="43.18747" lon="5.59305">
        <ele>64.199219</ele>
        <time>2018-04-04T15:24:09Z</time>
      </trkpt>
      <trkpt lat="43.18742" lon="5.59316">
        <ele>61.5</ele>
        <time>2018-04-04T15:24:17Z</time>
      </trkpt>
      <trkpt lat="43.18736" lon="5.59325">
        <ele>59.898438</ele>
        <time>2018-04-04T15:24:23Z</time>
      </trkpt>
      <trkpt lat="43.18728" lon="5.59334">
        <ele>58.398438</ele>
        <time>2018-04-04T15:24:29Z</time>
      </trkpt>
      <trkpt lat="43.1872" lon="5.5934">
        <ele>56.898438</ele>
        <time>2018-04-04T15:24:34Z</time>
      </trkpt>
      <trkpt lat="43.18711" lon="5.59347">
        <ele>57.5</ele>
        <time>2018-04-04T15:24:41Z</time>
      </trkpt>
      <trkpt lat="43.18704" lon="5.59356">
        <ele>57.699219</ele>
        <time>2018-04-04T15:24:50Z</time>
      </trkpt>
      <trkpt lat="43.18698" lon="5.59365">
        <ele>58.898438</ele>
        <time>2018-04-04T15:24:57Z</time>
      </trkpt>
      <trkpt lat="43.18691" lon="5.59373">
        <ele>58.898438</ele>
        <time>2018-04-04T15:25:04Z</time>
      </trkpt>
      <trkpt lat="43.18685" lon="5.59382">
        <ele>61.097656</ele>
        <time>2018-04-04T15:25:13Z</time>
      </trkpt>
      <trkpt lat="43.18678" lon="5.59393">
        <ele>59.199219</ele>
        <time>2018-04-04T15:25:20Z</time>
      </trkpt>
      <trkpt lat="43.18671" lon="5.59401">
        <ele>53.097656</ele>
        <time>2018-04-04T15:25:26Z</time>
      </trkpt>
      <trkpt lat="43.18665" lon="5.59413">
        <ele>46.398438</ele>
        <time>2018-04-04T15:25:34Z</time>
      </trkpt>
      <trkpt lat="43.18664" lon="5.59426">
        <ele>44.898438</ele>
        <time>2018-04-04T15:25:42Z</time>
      </trkpt>
      <trkpt lat="43.18664" lon="5.59439">
        <ele>44.699219</ele>
        <time>2018-04-04T15:25:50Z</time>
      </trkpt>
      <trkpt lat="43.1866" lon="5.59451">
        <ele>45.097656</ele>
        <time>2018-04-04T15:25:58Z</time>
      </trkpt>
      <trkpt lat="43.18656" lon="5.59462">
        <ele>45.597656</ele>
        <time>2018-04-04T15:26:05Z</time>
      </trkpt>
      <trkpt lat="43.18649" lon="5.59473">
        <ele>43.597656</ele>
        <time>2018-04-04T15:26:13Z</time>
      </trkpt>
      <trkpt lat="43.18642" lon="5.59479">
        <ele>42.597656</ele>
        <time>2018-04-04T15:26:21Z</time>
      </trkpt>
      <trkpt lat="43.18633" lon="5.59488">
        <ele>42.398438</ele>
        <time>2018-04-04T15:26:30Z</time>
      </trkpt>
      <trkpt lat="43.18625" lon="5.59495">
        <ele>39.597656</ele>
        <time>2018-04-04T15:26:38Z</time>
      </trkpt>
      <trkpt lat="43.18618" lon="5.59503">
        <ele>37.796875</ele>
        <time>2018-04-04T15:26:48Z</time>
      </trkpt>
      <trkpt lat="43.18609" lon="5.59509">
        <ele>34.597656</ele>
        <time>2018-04-04T15:26:58Z</time>
      </trkpt>
      <trkpt lat="43.186" lon="5.59512">
        <ele>34.5</ele>
        <time>2018-04-04T15:27:09Z</time>
      </trkpt>
      <trkpt lat="43.18592" lon="5.59518">
        <ele>35.898438</ele>
        <time>2018-04-04T15:27:17Z</time>
      </trkpt>
      <trkpt lat="43.18583" lon="5.59523">
        <ele>38.398438</ele>
        <time>2018-04-04T15:27:23Z</time>
      </trkpt>
      <trkpt lat="43.18575" lon="5.59529">
        <ele>41.296875</ele>
        <time>2018-04-04T15:27:31Z</time>
      </trkpt>
      <trkpt lat="43.18568" lon="5.59536">
        <ele>44.796875</ele>
        <time>2018-04-04T15:27:41Z</time>
      </trkpt>
      <trkpt lat="43.18562" lon="5.59546">
        <ele>47.5</ele>
        <time>2018-04-04T15:27:50Z</time>
      </trkpt>
      <trkpt lat="43.18556" lon="5.59557">
        <ele>48.097656</ele>
        <time>2018-04-04T15:28:02Z</time>
      </trkpt>
      <trkpt lat="43.18548" lon="5.59565">
        <ele>53.199219</ele>
        <time>2018-04-04T15:28:09Z</time>
      </trkpt>
      <trkpt lat="43.18538" lon="5.5957">
        <ele>59.398438</ele>
        <time>2018-04-04T15:28:19Z</time>
      </trkpt>
      <trkpt lat="43.18529" lon="5.59575">
        <ele>66.699219</ele>
        <time>2018-04-04T15:28:30Z</time>
      </trkpt>
      <trkpt lat="43.18524" lon="5.59586">
        <ele>63.214844</ele>
        <time>2018-04-04T15:28:41Z</time>
      </trkpt>
      <trkpt lat="43.18519" lon="5.59597">
        <ele>60.597656</ele>
        <time>2018-04-04T15:29:15Z</time>
      </trkpt>
      <trkpt lat="43.18512" lon="5.59606">
        <ele>59.097656</ele>
        <time>2018-04-04T15:29:21Z</time>
      </trkpt>
      <trkpt lat="43.18503" lon="5.59613">
        <ele>58.699219</ele>
        <time>2018-04-04T15:29:29Z</time>
      </trkpt>
      <trkpt lat="43.18496" lon="5.59623">
        <ele>58.5</ele>
        <time>2018-04-04T15:29:36Z</time>
      </trkpt>
      <trkpt lat="43.18489" lon="5.59632">
        <ele>54.898438</ele>
        <time>2018-04-04T15:29:45Z</time>
      </trkpt>
      <trkpt lat="43.18481" lon="5.59638">
        <ele>49.097656</ele>
        <time>2018-04-04T15:29:54Z</time>
      </trkpt>
      <trkpt lat="43.18439" lon="5.59667">
        <ele>50.796875</ele>
        <time>2018-04-04T15:30:42Z</time>
      </trkpt>
      <trkpt lat="43.18432" lon="5.59676">
        <ele>55.296875</ele>
        <time>2018-04-04T15:30:53Z</time>
      </trkpt>
      <trkpt lat="43.18426" lon="5.59687">
        <ele>56.796875</ele>
        <time>2018-04-04T15:31:01Z</time>
      </trkpt>
      <trkpt lat="43.18419" lon="5.59697">
        <ele>57</ele>
        <time>2018-04-04T15:31:08Z</time>
      </trkpt>
      <trkpt lat="43.18415" lon="5.59708">
        <ele>56.875</ele>
        <time>2018-04-04T15:31:16Z</time>
      </trkpt>
      <trkpt lat="43.18412" lon="5.5972">
        <ele>55.398438</ele>
        <time>2018-04-04T15:31:29Z</time>
      </trkpt>
      <trkpt lat="43.18409" lon="5.59733">
        <ele>54.097656</ele>
        <time>2018-04-04T15:31:37Z</time>
      </trkpt>
      <trkpt lat="43.18404" lon="5.59745">
        <ele>48.796875</ele>
        <time>2018-04-04T15:31:45Z</time>
      </trkpt>
      <trkpt lat="43.18396" lon="5.59753">
        <ele>47</ele>
        <time>2018-04-04T15:31:56Z</time>
      </trkpt>
      <trkpt lat="43.18387" lon="5.59755">
        <ele>46.398438</ele>
        <time>2018-04-04T15:32:12Z</time>
      </trkpt>
      <trkpt lat="43.18378" lon="5.59754">
        <ele>47.296875</ele>
        <time>2018-04-04T15:32:21Z</time>
      </trkpt>
      <trkpt lat="43.18341" lon="5.59747">
        <ele>54.796875</ele>
        <time>2018-04-04T15:32:58Z</time>
      </trkpt>
      <trkpt lat="43.18369" lon="5.59641">
        <ele>56</ele>
        <time>2018-04-04T15:34:37Z</time>
      </trkpt>
      <trkpt lat="43.18372" lon="5.59637">
        <ele>56.796875</ele>
        <time>2018-04-04T15:34:41Z</time>
      </trkpt>
    </trkseg>
  </trk>
</gpx>